createdAt,value
2022-10-05T00:01:52.907Z,98.86
2022-10-05T00:04:24.097Z,98.09
2022-10-05T00:07:17.427Z,98.78
2022-10-05T00:09:59.002Z,97.42
2022-10-05T00:12:28.269Z,98.63
2022-10-05T00:15:01.396Z,98.74
2022-10-05T00:17:30.338Z,98.89
2022-10-05T00:19:57.101Z,98.49
2022-10-05T00:22:29.780Z,98.25
2022-10-05T00:24:58.910Z,98.29
2022-10-05T00:27:31.469Z,99.15
2022-10-05T00:29:59.209Z,98.68
2022-10-05T00:32:26.036Z,99.14
2022-10-05T00:34:52.632Z,99.68
2022-10-05T00:37:19.271Z,100.00
2022-10-05T00:39:46.416Z,100.00
2022-10-05T00:42:50.341Z,100.00
2022-10-05T00:45:27.435Z,100.00
2022-10-05T00:48:42.000Z,99.80
2022-10-05T00:51:30.959Z,99.75
2022-10-05T00:54:41.781Z,99.64
2022-10-05T00:57:38.050Z,99.49
2022-10-05T01:00:08.643Z,99.17
2022-10-05T01:02:58.366Z,98.57
2022-10-05T01:05:46.770Z,97.96
2022-10-05T01:08:47.491Z,97.68
2022-10-05T01:11:50.890Z,98.61
2022-10-05T01:20:51.523Z,98.24
2022-10-05T01:27:08.813Z,98.27
2022-10-05T01:29:51.888Z,98.31
2022-10-05T01:32:44.435Z,98.31
2022-10-05T01:36:08.010Z,99.25
2022-10-05T01:38:57.212Z,99.09
2022-10-05T01:44:56.548Z,99.31
2022-10-05T01:47:43.952Z,98.68
2022-10-05T01:50:49.651Z,98.21
2022-10-05T01:53:37.943Z,98.78
2022-10-05T01:56:23.175Z,97.23
2022-10-05T02:02:14.589Z,97.37
2022-10-05T02:05:01.883Z,97.93
2022-10-05T02:07:45.601Z,97.59
2022-10-05T02:10:23.988Z,97.56
2022-10-05T02:12:57.350Z,97.84
2022-10-05T02:15:33.324Z,96.98
2022-10-05T02:18:06.821Z,99.17
2022-10-05T02:20:37.378Z,98.47
2022-10-05T02:23:09.402Z,99.25
2022-10-05T02:25:39.778Z,99.16
2022-10-05T02:28:12.540Z,99.41
2022-10-05T02:30:47.712Z,100.00
2022-10-05T02:33:30.741Z,99.29
2022-10-05T02:36:07.764Z,100.00
2022-10-05T02:38:54.529Z,99.34
2022-10-05T02:41:44.426Z,98.19
2022-10-05T02:44:50.315Z,98.79
2022-10-05T02:47:41.928Z,98.78
2022-10-05T02:50:26.923Z,98.57
2022-10-05T02:53:15.635Z,99.16
2022-10-05T02:56:08.813Z,98.30
2022-10-05T02:58:51.494Z,98.03
2022-10-05T03:01:31.759Z,98.27
2022-10-05T03:04:20.152Z,97.70
2022-10-05T03:07:23.734Z,97.44
2022-10-05T03:10:14.874Z,97.33
2022-10-05T03:13:00.108Z,96.79
2022-10-05T03:15:53.830Z,98.20
2022-10-05T03:19:05.150Z,98.35
2022-10-05T03:21:52.077Z,97.89
2022-10-05T03:24:55.727Z,97.50
2022-10-05T03:27:47.940Z,99.07
2022-10-05T03:30:19.591Z,98.71
2022-10-05T03:33:47.813Z,98.96
2022-10-05T03:36:33.053Z,98.19
2022-10-05T03:39:10.901Z,97.98
2022-10-05T03:42:07.042Z,98.07
2022-10-05T03:45:07.615Z,98.91
2022-10-05T03:48:03.637Z,99.24
2022-10-05T03:50:48.134Z,98.67
2022-10-05T03:53:29.883Z,98.27
2022-10-05T03:56:07.320Z,98.08
2022-10-05T03:58:49.849Z,98.61
2022-10-05T04:01:22.428Z,99.50
2022-10-05T04:04:04.146Z,98.08
2022-10-05T04:06:34.966Z,98.73
2022-10-05T04:09:27.970Z,99.17
2022-10-05T04:12:00.985Z,98.54
2022-10-05T04:14:34.422Z,98.36
2022-10-05T04:17:10.567Z,99.24
2022-10-05T04:19:59.986Z,100.00
2022-10-05T04:22:40.898Z,100.00
2022-10-05T04:25:28.666Z,99.81
2022-10-05T04:28:06.476Z,99.56
2022-10-05T04:30:34.879Z,99.23
2022-10-05T04:33:01.948Z,98.99
2022-10-05T04:35:50.178Z,99.33
2022-10-05T04:38:55.382Z,99.07
2022-10-05T04:41:52.154Z,98.39
2022-10-05T04:44:47.883Z,98.80
2022-10-05T04:47:55.102Z,97.71
2022-10-05T04:50:49.507Z,97.94
2022-10-05T04:53:44.437Z,98.91
2022-10-05T04:56:32.698Z,99.32
2022-10-05T04:59:54.148Z,98.23
2022-10-05T05:03:05.253Z,97.95
2022-10-05T05:06:18.313Z,97.46
2022-10-05T05:09:05.920Z,97.80
2022-10-05T05:12:07.775Z,97.73
2022-10-05T05:15:07.050Z,97.23
2022-10-05T05:17:47.019Z,97.99
2022-10-05T05:20:39.230Z,98.51
2022-10-05T05:23:15.223Z,97.86
2022-10-05T05:26:02.660Z,99.19
2022-10-05T05:28:53.896Z,98.02
2022-10-05T05:31:33.316Z,98.77
2022-10-05T05:34:31.256Z,98.25
2022-10-05T05:37:32.642Z,99.72
2022-10-05T05:40:36.238Z,100.00
2022-10-05T05:43:16.790Z,100.00
2022-10-05T05:45:57.831Z,100.00
2022-10-05T05:48:46.631Z,100.00
2022-10-05T05:51:19.272Z,99.48
2022-10-05T05:53:48.098Z,100.00
2022-10-05T05:56:20.697Z,100.00
2022-10-05T05:58:50.817Z,100.00
2022-10-05T06:01:52.563Z,100.00
2022-10-05T06:04:25.056Z,100.00
2022-10-05T06:06:54.307Z,100.00
2022-10-05T06:09:41.877Z,100.00
2022-10-05T06:12:27.488Z,100.00
2022-10-05T06:15:20.299Z,100.00
2022-10-05T06:17:55.084Z,100.00
2022-10-05T06:20:35.585Z,99.43
2022-10-05T06:23:07.534Z,98.99
2022-10-05T06:26:10.812Z,98.63
2022-10-05T06:28:38.335Z,98.29
2022-10-05T06:31:29.736Z,99.13
2022-10-05T06:34:18.478Z,99.52
2022-10-05T06:37:07.254Z,99.40
2022-10-05T06:40:23.703Z,98.80
2022-10-05T06:43:43.304Z,98.62
2022-10-05T06:46:23.669Z,99.35
2022-10-05T06:49:13.051Z,98.94
2022-10-05T06:51:55.640Z,98.59
2022-10-05T06:55:20.983Z,98.34
2022-10-05T06:57:59.430Z,99.35
2022-10-05T07:00:44.049Z,99.05
2022-10-05T07:03:20.846Z,98.58
2022-10-05T07:06:12.750Z,99.40
2022-10-05T07:09:00.769Z,99.90
2022-10-05T07:12:05.395Z,100.00
2022-10-05T07:14:52.116Z,100.00
2022-10-05T07:17:44.200Z,100.00
2022-10-05T07:20:48.258Z,99.40
2022-10-05T07:24:04.615Z,99.83
2022-10-05T07:26:42.156Z,98.43
2022-10-05T07:29:59.352Z,98.35
2022-10-05T07:33:14.133Z,98.17
2022-10-05T07:36:34.947Z,98.18
2022-10-05T07:39:14.447Z,97.83
2022-10-05T07:41:52.970Z,97.59
2022-10-05T07:44:53.904Z,98.75
2022-10-05T07:47:37.371Z,98.83
2022-10-05T07:50:38.834Z,98.21
2022-10-05T07:53:15.414Z,98.19
2022-10-05T07:55:50.152Z,96.68
2022-10-05T07:58:59.487Z,96.23
2022-10-05T08:01:33.502Z,95.64
2022-10-05T08:04:25.415Z,93.87
2022-10-05T08:07:01.878Z,95.16
2022-10-05T08:10:15.581Z,95.14
2022-10-05T08:13:30.565Z,95.16
2022-10-05T08:16:06.636Z,94.46
2022-10-05T08:18:59.558Z,95.11
2022-10-05T08:21:35.772Z,96.28
2022-10-05T08:24:41.282Z,95.25
2022-10-05T08:27:46.909Z,95.01
2022-10-05T08:30:16.266Z,93.66
2022-10-05T08:33:09.940Z,93.22
2022-10-05T08:35:46.302Z,93.64
2022-10-05T08:38:28.814Z,91.98
2022-10-05T08:41:49.606Z,92.14
2022-10-05T08:44:55.114Z,92.29
2022-10-05T08:47:50.411Z,92.32
2022-10-05T08:50:39.736Z,91.82
2022-10-05T08:53:23.663Z,91.82
2022-10-05T08:56:29.372Z,91.30
2022-10-05T08:59:40.624Z,92.38
2022-10-05T09:02:21.497Z,91.18
2022-10-05T09:05:03.821Z,91.98
2022-10-05T09:08:09.355Z,90.68
2022-10-05T09:11:10.930Z,89.31
2022-10-05T09:14:23.874Z,89.28
2022-10-05T09:17:20.226Z,87.02
2022-10-05T09:20:12.281Z,87.63
2022-10-05T09:23:25.093Z,86.56
2022-10-05T09:26:03.810Z,85.34
2022-10-05T09:29:19.499Z,84.30
2022-10-05T09:32:25.248Z,85.79
2022-10-05T09:35:22.242Z,85.51
2022-10-05T09:38:30.258Z,85.55
2022-10-05T09:41:43.230Z,84.63
2022-10-05T10:21:09.532Z,78.14
2022-10-05T10:24:40.899Z,78.67
2022-10-05T10:27:51.586Z,77.83
2022-10-05T10:30:54.471Z,78.95
2022-10-05T10:33:56.263Z,79.81
2022-10-05T10:37:11.544Z,78.61
2022-10-05T10:40:21.592Z,77.48
2022-10-05T10:43:23.037Z,77.77
2022-10-05T10:46:28.482Z,76.64
2022-10-05T10:49:40.098Z,77.63
2022-10-05T10:52:14.483Z,78.82
2022-10-05T10:55:25.191Z,76.44
2022-10-05T10:58:28.464Z,76.69
2022-10-05T11:01:37.000Z,76.96
2022-10-05T11:04:35.285Z,78.29
2022-10-05T11:07:45.720Z,78.35
2022-10-05T11:10:46.432Z,77.72
2022-10-05T11:13:31.703Z,78.31
2022-10-05T11:16:35.551Z,78.28
2022-10-05T11:20:05.032Z,79.07
2022-10-05T11:22:57.775Z,77.36
2022-10-05T11:25:48.877Z,75.60
2022-10-05T11:29:10.637Z,77.69
2022-10-05T11:32:17.327Z,76.13
2022-10-05T11:35:26.094Z,76.70
2022-10-05T11:38:31.598Z,75.48
2022-10-05T11:41:22.722Z,75.36
2022-10-05T11:44:51.958Z,74.75
2022-10-05T11:50:39.843Z,77.55
2022-10-05T11:56:38.253Z,75.22
2022-10-05T12:19:41.124Z,74.01
2022-10-05T12:22:20.430Z,72.78
2022-10-05T12:49:53.583Z,75.10
2022-10-05T12:52:56.033Z,76.21
2022-10-05T13:16:28.477Z,75.09
2022-10-05T13:31:12.688Z,76.79
2022-10-05T13:33:54.357Z,77.72
2022-10-05T13:36:36.369Z,77.33
2022-10-05T13:39:43.707Z,77.82
2022-10-05T13:42:15.897Z,78.14
2022-10-05T13:45:00.366Z,78.40
2022-10-05T13:47:38.984Z,78.81
2022-10-05T13:50:21.511Z,78.52
2022-10-05T13:53:13.131Z,78.57
2022-10-05T13:55:49.712Z,78.87
2022-10-05T13:58:29.713Z,79.22
2022-10-05T14:01:00.614Z,79.57
2022-10-05T14:03:36.078Z,78.97
2022-10-05T14:06:30.751Z,78.23
2022-10-05T14:09:00.297Z,77.48
2022-10-05T14:11:33.166Z,78.52
2022-10-05T14:14:23.509Z,78.33
2022-10-05T14:16:53.906Z,77.88
2022-10-05T14:19:45.598Z,78.11
2022-10-05T14:22:24.220Z,78.41
2022-10-05T14:25:18.151Z,78.57
2022-10-05T14:28:32.458Z,79.36
2022-10-05T14:31:13.092Z,78.05
2022-10-05T14:33:40.215Z,76.93
2022-10-05T14:36:16.419Z,76.87
2022-10-05T14:38:57.812Z,77.79
2022-10-05T14:41:27.333Z,78.43
2022-10-05T14:47:30.773Z,79.21
2022-10-05T14:50:17.813Z,78.95
2022-10-05T14:52:59.383Z,80.12
2022-10-05T14:56:10.402Z,80.20
2022-10-05T14:59:10.474Z,79.77
2022-10-05T15:01:44.341Z,80.55
2022-10-05T15:04:44.157Z,80.93
2022-10-05T15:07:44.501Z,81.16
2022-10-05T15:10:41.809Z,81.91
2022-10-05T15:13:32.200Z,81.21
2022-10-05T15:16:31.303Z,82.06
2022-10-05T15:19:31.199Z,82.54
2022-10-05T15:22:23.591Z,82.80
2022-10-05T15:25:12.067Z,83.37
2022-10-05T15:28:01.915Z,83.97
2022-10-05T15:30:29.047Z,83.52
2022-10-05T15:33:34.251Z,84.03
2022-10-05T15:36:16.995Z,84.26
2022-10-05T15:39:02.643Z,84.44
2022-10-05T15:42:20.511Z,84.58
2022-10-05T15:45:06.518Z,84.92
2022-10-05T15:47:48.293Z,85.26
2022-10-05T15:50:45.860Z,85.15
2022-10-05T15:53:21.318Z,85.39
2022-10-05T15:56:08.792Z,85.21
2022-10-05T15:58:50.041Z,85.54
2022-10-05T16:01:23.444Z,85.36
2022-10-05T16:04:13.998Z,85.09
2022-10-05T16:07:19.107Z,85.78
2022-10-05T16:09:52.807Z,85.79
2022-10-05T16:13:11.483Z,86.26
2022-10-05T16:15:48.679Z,86.53
2022-10-05T16:18:36.432Z,87.15
2022-10-05T16:21:05.833Z,87.02
2022-10-05T16:24:40.862Z,87.90
2022-10-05T16:27:22.510Z,87.72
2022-10-05T16:30:02.122Z,88.46
2022-10-05T16:32:57.990Z,88.59
2022-10-05T16:35:44.317Z,89.23
2022-10-05T16:38:38.682Z,89.45
2022-10-05T16:41:21.038Z,89.38
2022-10-05T16:44:13.526Z,89.52
2022-10-05T16:46:49.410Z,89.93
2022-10-05T16:49:51.401Z,89.31
2022-10-05T16:52:21.330Z,89.38
2022-10-05T16:54:53.870Z,89.58
2022-10-05T16:57:25.102Z,89.54
2022-10-05T17:00:15.927Z,89.37
2022-10-05T17:03:13.270Z,89.25
2022-10-05T17:06:05.625Z,89.31
2022-10-05T17:09:09.505Z,89.62
2022-10-05T17:12:15.044Z,89.72
2022-10-05T17:15:29.757Z,90.10
2022-10-05T17:18:30.296Z,89.90
2022-10-05T17:21:21.451Z,90.03
2022-10-05T17:23:55.929Z,90.29
2022-10-05T17:29:32.168Z,90.60
2022-10-05T17:32:30.160Z,90.38
2022-10-05T17:35:18.929Z,91.04
2022-10-05T17:50:21.689Z,92.53
2022-10-05T17:53:40.197Z,92.70
2022-10-05T17:56:07.039Z,93.54
2022-10-05T17:59:01.191Z,94.26
2022-10-05T18:01:36.381Z,94.78
2022-10-05T18:04:38.211Z,95.41
2022-10-05T18:07:17.935Z,96.15
2022-10-05T18:10:19.349Z,95.51
2022-10-05T18:13:18.057Z,95.78
2022-10-05T18:15:48.699Z,96.27
2022-10-05T18:18:35.759Z,97.22
2022-10-05T18:21:30.533Z,98.00
2022-10-05T18:24:26.946Z,98.07
2022-10-05T18:27:26.470Z,98.01
2022-10-05T18:30:06.465Z,97.76
2022-10-05T18:33:23.305Z,97.80
2022-10-05T18:36:38.096Z,98.33
2022-10-05T18:39:29.015Z,98.71
2022-10-05T18:42:17.271Z,100.00
2022-10-05T18:44:49.400Z,100.00
2022-10-05T18:48:12.854Z,100.00
2022-10-05T18:51:17.892Z,100.00
2022-10-05T18:54:38.504Z,100.00
2022-10-05T18:58:03.855Z,100.00
2022-10-05T19:01:00.162Z,100.00
2022-10-05T19:04:13.360Z,100.00
2022-10-05T19:06:50.449Z,100.00
2022-10-05T19:35:23.514Z,100.00
2022-10-05T19:38:26.256Z,100.00
2022-10-05T19:41:17.665Z,100.00
2022-10-05T19:44:35.563Z,100.00
2022-10-05T19:47:43.787Z,100.00
2022-10-05T19:50:34.427Z,100.00
2022-10-05T19:53:11.227Z,100.00
2022-10-05T19:55:41.764Z,100.00
2022-10-05T19:58:28.494Z,100.00
2022-10-05T20:01:00.657Z,100.00
2022-10-05T20:03:32.389Z,100.00
2022-10-05T20:06:04.275Z,100.00
2022-10-05T20:08:39.462Z,100.00
2022-10-05T20:11:11.980Z,100.00
2022-10-05T20:13:42.513Z,100.00
2022-10-05T20:16:49.131Z,100.00
2022-10-05T20:19:52.227Z,100.00
2022-10-05T20:22:49.022Z,100.00
2022-10-05T20:25:18.307Z,100.00
2022-10-05T20:27:53.194Z,100.00
2022-10-05T20:30:21.290Z,100.00
2022-10-05T20:32:59.548Z,100.00
2022-10-05T20:35:30.425Z,100.00
2022-10-05T20:37:59.728Z,100.00
2022-10-05T20:40:29.124Z,100.00
2022-10-05T20:42:56.484Z,100.00
2022-10-05T20:45:23.089Z,100.00
2022-10-05T20:47:51.009Z,100.00
2022-10-05T20:50:17.896Z,100.00
2022-10-05T20:52:44.677Z,100.00
2022-10-05T20:55:12.337Z,100.00
2022-10-05T20:57:42.073Z,100.00
2022-10-05T21:00:13.016Z,100.00
2022-10-05T21:02:39.869Z,100.00
2022-10-05T21:05:07.786Z,100.00
2022-10-05T21:07:34.644Z,100.00
2022-10-05T21:10:02.343Z,100.00
2022-10-05T21:12:29.327Z,100.00
2022-10-05T21:14:56.145Z,100.00
2022-10-05T21:17:22.697Z,100.00
2022-10-05T21:19:49.303Z,100.00
2022-10-05T21:22:15.967Z,100.00
2022-10-05T21:24:42.564Z,100.00
2022-10-05T21:27:10.199Z,100.00
2022-10-05T21:29:37.144Z,100.00
2022-10-05T21:32:08.419Z,100.00
2022-10-05T21:34:35.396Z,100.00
2022-10-05T21:37:02.171Z,100.00
2022-10-05T21:39:28.983Z,100.00
2022-10-05T21:41:56.274Z,100.00
2022-10-05T21:44:22.870Z,100.00
2022-10-05T21:46:49.634Z,100.00
2022-10-05T21:49:18.960Z,100.00
2022-10-05T21:51:47.838Z,100.00
2022-10-05T21:54:19.587Z,100.00
2022-10-05T21:56:49.945Z,100.00
2022-10-05T21:59:20.319Z,100.00
2022-10-05T22:01:47.211Z,100.00
2022-10-05T22:04:15.063Z,100.00
2022-10-05T22:06:41.765Z,100.00
2022-10-05T22:09:08.329Z,100.00
2022-10-05T22:11:35.122Z,100.00
2022-10-05T22:14:04.695Z,100.00
2022-10-05T22:16:34.427Z,100.00
2022-10-05T22:19:06.398Z,100.00
2022-10-05T22:21:37.919Z,100.00
2022-10-05T22:24:05.181Z,100.00
2022-10-05T22:26:32.090Z,100.00
2022-10-05T22:28:58.881Z,100.00
2022-10-05T22:31:25.651Z,100.00
2022-10-05T22:33:52.281Z,100.00
2022-10-05T22:36:19.652Z,100.00
2022-10-05T22:38:47.587Z,100.00
2022-10-05T22:41:15.356Z,100.00
2022-10-05T22:43:42.072Z,100.00
2022-10-05T22:46:12.910Z,100.00
2022-10-05T22:48:40.258Z,100.00
2022-10-05T22:51:08.847Z,100.00
2022-10-05T22:53:35.897Z,100.00
2022-10-05T22:56:10.888Z,100.00
2022-10-05T22:58:38.389Z,100.00
2022-10-05T23:01:07.415Z,100.00
2022-10-05T23:03:34.586Z,100.00
2022-10-05T23:06:04.426Z,100.00
2022-10-05T23:08:33.092Z,100.00
2022-10-05T23:11:08.295Z,100.00
2022-10-05T23:13:34.833Z,100.00
2022-10-05T23:16:15.587Z,100.00
2022-10-05T23:18:43.443Z,100.00
2022-10-05T23:21:11.610Z,100.00
2022-10-05T23:23:40.745Z,100.00
2022-10-05T23:26:10.484Z,100.00
2022-10-05T23:28:39.382Z,100.00
2022-10-05T23:31:08.073Z,100.00
2022-10-05T23:33:35.462Z,100.00
2022-10-05T23:36:12.401Z,100.00
2022-10-05T23:38:39.004Z,100.00
2022-10-05T23:41:06.306Z,100.00
2022-10-05T23:43:33.837Z,100.00
2022-10-05T23:46:01.215Z,100.00
2022-10-05T23:48:28.317Z,100.00
2022-10-05T23:50:55.780Z,100.00
2022-10-05T23:53:23.395Z,100.00
2022-10-05T23:55:53.781Z,100.00
2022-10-05T23:58:21.644Z,100.00
